createdAt,value
2023-02-06T00:01:50.425Z,6.83
2023-02-06T00:04:20.594Z,5.67
2023-02-06T00:06:49.671Z,5.50
2023-02-06T00:09:18.116Z,5.97
2023-02-06T00:11:46.550Z,4.50
2023-02-06T00:14:14.986Z,5.90
2023-02-06T00:16:43.461Z,4.70
2023-02-06T00:19:11.890Z,5.87
2023-02-06T00:21:41.742Z,5.80
2023-02-06T00:24:10.220Z,11.27
2023-02-06T00:26:38.660Z,8.90
2023-02-06T00:29:07.175Z,7.73
2023-02-06T00:31:35.651Z,5.30
2023-02-06T00:34:05.008Z,7.33
2023-02-06T00:36:34.676Z,6.40
2023-02-06T00:39:05.158Z,5.77
2023-02-06T00:41:33.580Z,7.23
2023-02-06T00:44:01.986Z,5.30
2023-02-06T00:46:30.553Z,4.63
2023-02-06T00:48:58.962Z,4.40
2023-02-06T00:51:27.471Z,6.73
2023-02-06T00:53:55.873Z,7.57
2023-02-06T00:56:25.705Z,7.13
2023-02-06T00:58:54.142Z,6.87
2023-02-06T01:01:22.615Z,7.73
2023-02-06T01:03:51.062Z,5.37
2023-02-06T01:06:19.735Z,6.07
2023-02-06T01:08:49.051Z,7.17
2023-02-06T01:11:21.287Z,5.60
2023-02-06T01:13:51.371Z,5.37
2023-02-06T01:16:22.951Z,4.63
2023-02-06T01:18:51.956Z,5.23
2023-02-06T01:21:22.560Z,5.27
2023-02-06T01:23:53.731Z,6.57
2023-02-06T01:26:25.764Z,5.87
2023-02-06T01:28:56.680Z,6.87
2023-02-06T01:31:27.855Z,6.40
2023-02-06T01:33:57.480Z,5.37
2023-02-06T01:36:26.579Z,7.53
2023-02-06T01:38:55.560Z,7.83
2023-02-06T01:41:25.094Z,6.77
2023-02-06T01:44:15.862Z,7.67
2023-02-06T01:46:47.337Z,6.93
2023-02-06T01:49:21.605Z,4.20
2023-02-06T01:51:52.681Z,8.80
2023-02-06T01:54:21.396Z,7.67
2023-02-06T01:56:54.071Z,5.43
2023-02-06T01:59:25.715Z,8.03
2023-02-06T02:01:54.146Z,7.70
2023-02-06T02:04:27.664Z,6.07
2023-02-06T02:07:07.521Z,8.70
2023-02-06T02:09:36.431Z,7.87
2023-02-06T02:12:05.318Z,7.63
2023-02-06T02:14:35.827Z,8.07
2023-02-06T02:17:26.044Z,6.40
2023-02-06T02:20:47.550Z,5.80
2023-02-06T02:23:30.584Z,6.07
2023-02-06T02:26:45.680Z,5.77
2023-02-06T02:30:07.626Z,7.70
2023-02-06T02:33:32.708Z,11.83
2023-02-06T02:36:11.176Z,6.87
2023-02-06T02:38:53.480Z,7.87
2023-02-06T02:41:29.740Z,7.93
2023-02-06T02:44:06.058Z,8.90
2023-02-06T02:46:39.011Z,8.40
2023-02-06T02:49:13.034Z,6.30
2023-02-06T02:51:43.957Z,6.23
2023-02-06T02:54:12.653Z,5.60
2023-02-06T02:56:42.028Z,7.33
2023-02-06T02:59:16.617Z,6.83
2023-02-06T03:01:53.927Z,6.33
2023-02-06T03:04:27.017Z,5.60
2023-02-06T03:07:10.113Z,5.37
2023-02-06T03:09:51.476Z,7.17
2023-02-06T03:12:27.874Z,6.80
2023-02-06T03:15:01.014Z,8.10
2023-02-06T03:17:36.852Z,6.33
2023-02-06T03:20:09.387Z,9.00
2023-02-06T03:22:41.238Z,7.40
2023-02-06T03:25:17.408Z,8.20
2023-02-06T03:27:48.223Z,7.23
2023-02-06T03:30:19.398Z,8.40
2023-02-06T03:32:51.540Z,6.67
2023-02-06T03:35:24.075Z,6.63
2023-02-06T03:37:54.859Z,5.50
2023-02-06T03:40:24.098Z,6.83
2023-02-06T03:42:57.624Z,4.70
2023-02-06T03:45:31.535Z,7.93
2023-02-06T03:48:04.086Z,6.10
2023-02-06T03:50:34.616Z,8.83
2023-02-06T03:53:06.614Z,6.03
2023-02-06T03:55:36.218Z,7.30
2023-02-06T03:58:11.252Z,8.83
2023-02-06T04:00:42.386Z,6.67
2023-02-06T04:03:12.188Z,6.10
2023-02-06T04:05:41.304Z,9.13
2023-02-06T04:08:11.133Z,7.40
2023-02-06T04:10:39.534Z,7.03
2023-02-06T04:13:07.922Z,7.53
2023-02-06T04:15:36.735Z,5.77
2023-02-06T04:18:06.211Z,7.27
2023-02-06T04:20:40.942Z,8.20
2023-02-06T04:23:10.903Z,8.73
2023-02-06T04:25:39.402Z,7.00
2023-02-06T04:28:07.916Z,6.77
2023-02-06T04:30:36.444Z,6.47
2023-02-06T04:33:05.454Z,6.17
2023-02-06T04:35:34.072Z,5.97
2023-02-06T04:38:02.642Z,9.17
2023-02-06T04:40:32.477Z,8.53
2023-02-06T04:43:01.314Z,8.47
2023-02-06T04:45:29.765Z,6.60
2023-02-06T04:47:59.546Z,7.67
2023-02-06T04:50:31.319Z,6.87
2023-02-06T04:53:00.168Z,6.97
2023-02-06T04:55:28.964Z,6.77
2023-02-06T04:57:58.768Z,8.77
2023-02-06T05:00:27.337Z,6.27
2023-02-06T05:02:55.796Z,9.63
2023-02-06T05:05:24.246Z,5.77
2023-02-06T05:07:52.735Z,10.77
2023-02-06T05:10:21.428Z,8.27
2023-02-06T05:12:50.960Z,7.10
2023-02-06T05:15:21.039Z,5.97
2023-02-06T05:17:49.441Z,10.73
2023-02-06T05:20:18.254Z,9.27
2023-02-06T05:22:46.761Z,5.40
2023-02-06T05:25:15.244Z,9.70
2023-02-06T05:27:43.681Z,6.10
2023-02-06T05:30:14.446Z,10.27
2023-02-06T05:32:44.507Z,6.50
2023-02-06T05:35:13.061Z,6.37
2023-02-06T05:37:41.529Z,9.97
2023-02-06T05:40:12.181Z,8.33
2023-02-06T05:42:40.565Z,6.93
2023-02-06T05:45:10.812Z,6.73
2023-02-06T05:47:39.995Z,5.90
2023-02-06T05:50:10.920Z,6.40
2023-02-06T05:52:39.440Z,6.47
2023-02-06T05:55:09.664Z,7.80
2023-02-06T05:57:38.136Z,7.53
2023-02-06T06:00:08.942Z,6.70
2023-02-06T06:02:37.336Z,7.33
2023-02-06T06:05:06.804Z,7.37
2023-02-06T06:07:36.623Z,8.93
2023-02-06T06:10:06.877Z,17.60
2023-02-06T06:12:35.288Z,6.87
2023-02-06T06:15:03.758Z,8.10
2023-02-06T06:17:33.422Z,6.37
2023-02-06T06:20:01.891Z,7.60
2023-02-06T06:22:30.338Z,7.40
2023-02-06T06:25:00.394Z,8.77
2023-02-06T06:27:28.859Z,7.23
2023-02-06T06:29:57.235Z,7.70
2023-02-06T06:32:25.649Z,7.57
2023-02-06T06:34:54.027Z,6.23
2023-02-06T06:37:22.567Z,6.50
2023-02-06T06:39:50.982Z,10.47
2023-02-06T06:42:20.914Z,10.43
2023-02-06T06:44:49.371Z,6.47
2023-02-06T06:47:17.856Z,6.80
2023-02-06T06:49:46.247Z,12.97
2023-02-06T06:52:24.423Z,8.33
2023-02-06T06:54:53.654Z,6.27
2023-02-06T06:57:23.892Z,6.20
2023-02-06T06:59:52.710Z,6.10
2023-02-06T07:02:21.123Z,9.37
2023-02-06T07:04:49.568Z,8.07
2023-02-06T07:07:18.022Z,6.30
2023-02-06T07:09:46.575Z,7.00
2023-02-06T07:12:15.008Z,9.70
2023-02-06T07:14:44.887Z,15.33
2023-02-06T07:17:13.572Z,8.10
2023-02-06T07:19:42.072Z,6.57
2023-02-06T07:22:10.508Z,11.03
2023-02-06T07:24:38.960Z,6.30
2023-02-06T07:27:07.714Z,5.43
2023-02-06T07:29:36.302Z,8.17
2023-02-06T07:32:06.807Z,11.33
2023-02-06T07:34:36.669Z,8.13
2023-02-06T07:37:05.286Z,7.57
2023-02-06T07:39:33.913Z,7.00
2023-02-06T07:42:02.384Z,7.77
2023-02-06T07:44:30.751Z,7.07
2023-02-06T07:46:59.201Z,7.57
2023-02-06T07:49:29.044Z,8.27
2023-02-06T07:51:57.566Z,6.90
2023-02-06T07:54:26.186Z,9.87
2023-02-06T07:56:54.612Z,9.40
2023-02-06T07:59:23.597Z,6.10
2023-02-06T08:01:52.110Z,7.10
2023-02-06T08:04:20.886Z,6.40
2023-02-06T08:06:50.686Z,9.03
2023-02-06T08:09:19.159Z,7.77
2023-02-06T08:11:47.717Z,9.53
2023-02-06T08:14:16.178Z,11.87
2023-02-06T08:16:44.827Z,8.13
2023-02-06T08:19:13.355Z,7.03
2023-02-06T08:21:42.844Z,7.17
2023-02-06T08:24:13.843Z,10.43
2023-02-06T08:26:43.838Z,9.93
2023-02-06T08:29:14.479Z,7.90
2023-02-06T08:31:44.444Z,9.40
2023-02-06T08:34:15.799Z,10.63
2023-02-06T08:36:44.756Z,9.07
2023-02-06T08:39:15.995Z,9.53
2023-02-06T08:41:45.654Z,7.10
2023-02-06T08:44:18.234Z,6.90
2023-02-06T08:46:49.690Z,8.37
2023-02-06T08:49:23.680Z,9.73
2023-02-06T08:51:52.131Z,7.70
2023-02-06T08:54:24.873Z,11.37
2023-02-06T08:56:56.426Z,13.33
2023-02-06T08:59:25.230Z,15.17
2023-02-06T09:01:53.664Z,11.83
2023-02-06T09:04:22.403Z,6.77
2023-02-06T09:06:52.217Z,15.03
2023-02-06T09:09:22.126Z,12.43
2023-02-06T09:11:50.650Z,4.97
2023-02-06T09:14:20.396Z,9.30
2023-02-06T09:16:48.866Z,7.37
2023-02-06T09:19:17.402Z,7.17
2023-02-06T09:21:45.951Z,7.67
2023-02-06T09:24:14.466Z,8.83
2023-02-06T09:26:58.939Z,7.07
2023-02-06T09:29:29.591Z,7.10
2023-02-06T09:31:58.467Z,6.57
2023-02-06T09:34:27.389Z,7.83
2023-02-06T09:36:56.906Z,7.17
2023-02-06T09:39:26.354Z,9.23
2023-02-06T09:42:04.408Z,7.73
2023-02-06T09:44:36.932Z,8.80
2023-02-06T09:47:25.030Z,17.57
2023-02-06T09:49:58.996Z,8.73
2023-02-06T09:52:58.494Z,11.70
2023-02-06T09:55:34.622Z,10.97
2023-02-06T09:58:19.181Z,7.53
2023-02-06T10:00:54.548Z,13.80
2023-02-06T10:03:57.711Z,9.93
2023-02-06T10:06:29.147Z,7.60
2023-02-06T10:09:04.393Z,8.03
2023-02-06T10:11:48.050Z,9.35
2023-02-06T10:14:25.516Z,9.27
2023-02-06T10:17:01.063Z,7.90
2023-02-06T10:19:43.864Z,16.07
2023-02-06T10:22:19.814Z,9.47
2023-02-06T10:24:59.705Z,8.60
2023-02-06T10:27:28.162Z,10.63
2023-02-06T10:29:58.100Z,8.97
2023-02-06T10:32:39.850Z,12.73
2023-02-06T10:35:33.470Z,10.82
2023-02-06T10:38:47.114Z,9.23
2023-02-06T10:41:30.196Z,7.90
2023-02-06T10:44:06.216Z,6.50
2023-02-06T10:46:44.835Z,6.40
2023-02-06T10:49:24.116Z,6.07
2023-02-06T10:51:56.888Z,5.70
2023-02-06T10:54:31.503Z,7.70
2023-02-06T10:57:01.125Z,7.97
2023-02-06T10:59:35.013Z,9.00
2023-02-06T11:02:23.403Z,7.03
2023-02-06T11:05:00.938Z,6.70
2023-02-06T11:07:34.582Z,5.17
2023-02-06T11:10:03.337Z,5.53
2023-02-06T11:12:37.493Z,7.60
2023-02-06T11:15:17.791Z,9.93
2023-02-06T11:17:47.966Z,8.75
2023-02-06T11:20:24.160Z,7.75
2023-02-06T11:22:53.732Z,8.93
2023-02-06T11:25:29.170Z,9.67
2023-02-06T11:27:59.221Z,6.07
2023-02-06T11:30:36.450Z,9.07
2023-02-06T11:33:09.393Z,6.15
2023-02-06T11:35:48.753Z,7.47
2023-02-06T11:38:21.101Z,8.02
2023-02-06T11:41:00.726Z,7.95
2023-02-06T11:43:33.499Z,7.78
2023-02-06T11:46:17.794Z,6.60
2023-02-06T11:49:03.691Z,8.25
2023-02-06T11:51:49.530Z,7.22
2023-02-06T11:54:25.125Z,21.40
2023-02-06T11:56:59.782Z,8.88
2023-02-06T11:59:28.783Z,8.27
2023-02-06T12:02:01.422Z,8.60
2023-02-06T12:04:41.374Z,9.60
2023-02-06T12:07:18.088Z,8.18
2023-02-06T12:09:46.530Z,9.15
2023-02-06T12:12:24.031Z,10.02
2023-02-06T12:14:56.921Z,10.23
2023-02-06T12:17:29.798Z,10.23
2023-02-06T12:20:06.692Z,7.45
2023-02-06T12:22:47.157Z,8.70
2023-02-06T12:25:35.873Z,7.78
2023-02-06T12:28:11.698Z,7.95
2023-02-06T12:30:46.663Z,6.05
2023-02-06T12:33:22.261Z,6.60
2023-02-06T12:35:59.655Z,6.72
2023-02-06T12:38:42.626Z,8.55
2023-02-06T12:41:32.595Z,7.93
2023-02-06T12:44:11.640Z,6.82
2023-02-06T12:46:41.894Z,10.13
2023-02-06T12:49:21.622Z,8.55
2023-02-06T12:52:04.829Z,7.10
2023-02-06T12:54:40.424Z,9.68
2023-02-06T12:57:17.205Z,9.30
2023-02-06T13:00:14.497Z,8.80
2023-02-06T13:03:26.681Z,12.85
2023-02-06T13:06:01.791Z,10.27
2023-02-06T13:08:42.722Z,11.43
2023-02-06T13:11:28.872Z,8.32
2023-02-06T13:14:07.356Z,9.50
2023-02-06T13:16:56.205Z,8.30
2023-02-06T13:19:33.024Z,12.20
2023-02-06T13:22:47.035Z,7.35
2023-02-06T13:25:53.844Z,12.63
2023-02-06T13:28:44.591Z,9.13
2023-02-06T13:31:31.457Z,8.88
2023-02-06T13:34:07.124Z,8.90
2023-02-06T13:36:52.421Z,8.98
2023-02-06T13:39:29.711Z,10.43
2023-02-06T13:42:19.339Z,7.45
2023-02-06T13:44:47.908Z,8.77
2023-02-06T13:48:18.436Z,8.20
2023-02-06T13:51:20.175Z,8.02
2023-02-06T13:54:40.709Z,8.52
2023-02-06T13:57:33.885Z,7.22
2023-02-06T14:00:13.275Z,9.68
2023-02-06T14:02:45.463Z,9.03
2023-02-06T14:05:20.698Z,7.80
2023-02-06T14:08:06.191Z,8.30
2023-02-06T14:11:07.184Z,9.67
2023-02-06T14:13:51.826Z,7.07
2023-02-06T14:16:35.685Z,7.37
2023-02-06T14:19:09.618Z,9.23
2023-02-06T14:21:51.558Z,9.13
2023-02-06T14:24:44.121Z,10.20
2023-02-06T14:27:30.193Z,8.33
2023-02-06T14:30:11.438Z,10.70
2023-02-06T14:32:56.454Z,8.00
2023-02-06T14:35:56.818Z,10.73
2023-02-06T14:39:08.256Z,8.20
2023-02-06T14:41:39.775Z,12.43
2023-02-06T14:44:14.584Z,10.00
2023-02-06T14:46:46.653Z,8.83
2023-02-06T14:49:28.426Z,6.30
2023-02-06T14:51:57.004Z,9.10
2023-02-06T14:54:32.725Z,9.40
2023-02-06T14:57:04.419Z,8.53
2023-02-06T14:59:33.089Z,6.93
2023-02-06T15:02:15.287Z,8.07
2023-02-06T15:04:47.750Z,8.07
2023-02-06T15:07:26.631Z,8.60
2023-02-06T15:10:05.737Z,6.83
2023-02-06T15:12:35.750Z,8.17
2023-02-06T15:15:18.354Z,7.20
2023-02-06T15:18:04.712Z,9.63
2023-02-06T15:20:39.240Z,7.93
2023-02-06T15:23:18.133Z,7.57
2023-02-06T15:26:06.525Z,7.40
2023-02-06T15:28:38.776Z,4.77
2023-02-06T15:31:19.717Z,7.77
2023-02-06T15:33:53.244Z,8.97
2023-02-06T15:36:30.711Z,5.40
2023-02-06T15:39:00.709Z,8.57
2023-02-06T15:41:31.327Z,14.30
2023-02-06T15:44:05.200Z,9.00
2023-02-06T15:46:34.115Z,9.17
2023-02-06T15:49:04.343Z,6.83
2023-02-06T15:51:42.318Z,5.97
2023-02-06T15:54:22.681Z,8.63
2023-02-06T15:56:54.896Z,5.83
2023-02-06T15:59:27.296Z,5.93
2023-02-06T16:02:00.639Z,21.57
2023-02-06T16:04:35.161Z,15.57
2023-02-06T16:07:13.729Z,10.03
2023-02-06T16:09:54.865Z,8.27
2023-02-06T16:12:23.967Z,8.87
2023-02-06T16:14:59.568Z,19.20
2023-02-06T16:17:33.334Z,10.40
2023-02-06T16:20:05.542Z,8.63
2023-02-06T16:22:38.397Z,9.23
2023-02-06T16:25:25.873Z,11.57
2023-02-06T16:27:54.409Z,8.47
2023-02-06T16:30:30.312Z,8.37
2023-02-06T16:33:02.116Z,8.17
2023-02-06T16:35:32.009Z,8.73
2023-02-06T16:38:00.515Z,7.07
2023-02-06T16:40:29.055Z,8.20
2023-02-06T16:42:57.456Z,11.48
2023-02-06T16:45:28.460Z,8.87
2023-02-06T16:47:57.066Z,12.57
2023-02-06T16:50:25.766Z,10.10
2023-02-06T16:52:58.266Z,8.17
2023-02-06T16:55:28.946Z,8.83
2023-02-06T16:58:01.625Z,12.97
2023-02-06T17:00:32.782Z,9.83
2023-02-06T17:03:01.659Z,9.57
2023-02-06T17:05:33.617Z,8.03
2023-02-06T17:08:05.254Z,7.90
2023-02-06T17:10:34.379Z,11.95
2023-02-06T17:13:03.947Z,13.30
2023-02-06T17:15:32.987Z,9.00
2023-02-06T17:18:01.940Z,11.63
2023-02-06T17:20:35.833Z,14.70
2023-02-06T17:23:06.260Z,10.87
2023-02-06T17:25:36.290Z,19.00
2023-02-06T17:28:07.537Z,9.77
2023-02-06T17:30:38.338Z,10.47
2023-02-06T17:33:09.964Z,12.87
2023-02-06T17:35:41.051Z,16.37
2023-02-06T17:38:11.859Z,9.67
2023-02-06T17:40:41.373Z,11.93
2023-02-06T17:43:10.775Z,10.20
2023-02-06T17:45:40.683Z,12.10
2023-02-06T17:48:10.031Z,10.30
2023-02-06T17:50:41.344Z,16.83
2023-02-06T17:53:15.444Z,10.50
2023-02-06T17:55:46.016Z,13.20
2023-02-06T17:58:16.463Z,16.43
2023-02-06T18:00:47.901Z,11.47
2023-02-06T18:03:18.371Z,14.80
2023-02-06T18:05:56.650Z,12.20
2023-02-06T18:08:27.453Z,18.00
2023-02-06T18:10:59.024Z,16.30
2023-02-06T18:13:29.102Z,14.73
2023-02-06T18:16:00.978Z,21.00
2023-02-06T18:18:33.349Z,18.03
2023-02-06T18:21:03.331Z,16.83
2023-02-06T18:23:34.097Z,16.57
2023-02-06T18:26:05.304Z,15.23
2023-02-06T18:28:35.217Z,14.80
2023-02-06T18:31:04.991Z,16.75
2023-02-06T18:33:37.050Z,16.90
2023-02-06T18:36:07.728Z,11.73
2023-02-06T18:38:38.482Z,12.87
2023-02-06T18:41:29.994Z,12.80
2023-02-06T18:44:02.327Z,15.47
2023-02-06T18:46:32.913Z,15.67
2023-02-06T18:49:03.780Z,11.73
2023-02-06T18:51:34.053Z,15.63
2023-02-06T18:54:10.462Z,19.57
2023-02-06T18:56:41.500Z,12.73
2023-02-06T18:59:10.533Z,13.10
2023-02-06T19:01:40.888Z,14.17
2023-02-06T19:04:11.327Z,12.20
2023-02-06T19:06:43.585Z,12.70
2023-02-06T19:09:17.249Z,14.17
2023-02-06T19:11:48.665Z,13.60
2023-02-06T19:14:22.692Z,16.63
2023-02-06T19:16:55.530Z,14.83
2023-02-06T19:19:24.975Z,17.67
2023-02-06T19:21:55.686Z,15.13
2023-02-06T19:24:30.826Z,13.67
2023-02-06T19:27:02.332Z,12.93
2023-02-06T19:29:36.292Z,17.77
2023-02-06T19:32:10.965Z,19.73
2023-02-06T19:34:44.556Z,15.13
2023-02-06T19:37:17.593Z,15.20
2023-02-06T19:39:50.589Z,11.20
2023-02-06T19:42:21.134Z,13.17
2023-02-06T19:44:55.890Z,15.10
2023-02-06T19:47:27.401Z,13.33
2023-02-06T19:49:57.502Z,11.87
2023-02-06T19:52:29.037Z,13.00
2023-02-06T19:55:00.718Z,10.90
2023-02-06T19:57:31.364Z,13.20
2023-02-06T20:00:00.917Z,22.50
2023-02-06T20:02:32.552Z,13.73
2023-02-06T20:05:06.374Z,16.13
2023-02-06T20:07:38.303Z,13.97
2023-02-06T20:10:10.510Z,14.27
2023-02-06T20:12:41.136Z,13.93
2023-02-06T20:15:12.670Z,15.80
2023-02-06T20:17:42.894Z,14.50
2023-02-06T20:20:17.638Z,16.13
2023-02-06T20:22:48.369Z,15.40
2023-02-06T20:25:21.926Z,18.13
2023-02-06T20:27:53.182Z,13.60
2023-02-06T20:30:24.700Z,15.80
2023-02-06T20:32:56.346Z,20.43
2023-02-06T20:35:26.351Z,17.73
2023-02-06T20:37:55.936Z,17.73
2023-02-06T20:40:27.671Z,14.87
2023-02-06T20:42:57.001Z,16.97
2023-02-06T20:45:26.591Z,17.50
2023-02-06T20:47:59.418Z,19.47
2023-02-06T20:50:30.081Z,16.43
2023-02-06T20:53:00.259Z,19.03
2023-02-06T20:55:30.949Z,20.63
2023-02-06T20:58:00.808Z,18.53
2023-02-06T21:00:30.646Z,17.40
2023-02-06T21:02:59.851Z,16.53
2023-02-06T21:05:31.059Z,14.77
2023-02-06T21:08:01.445Z,15.47
2023-02-06T21:10:32.466Z,16.47
2023-02-06T21:13:00.996Z,19.83
2023-02-06T21:15:29.966Z,20.47
2023-02-06T21:17:58.723Z,19.93
2023-02-06T21:20:27.262Z,19.17
2023-02-06T21:22:56.203Z,14.67
2023-02-06T21:25:26.025Z,22.57
2023-02-06T21:27:56.239Z,15.87
2023-02-06T21:30:24.958Z,18.43
2023-02-06T21:32:53.490Z,15.63
2023-02-06T21:35:21.984Z,17.60
2023-02-06T21:37:50.570Z,18.37
2023-02-06T21:40:19.279Z,21.37
2023-02-06T21:42:47.734Z,19.57
2023-02-06T21:45:17.803Z,21.27
2023-02-06T21:47:46.253Z,16.73
2023-02-06T21:50:14.958Z,21.03
2023-02-06T21:52:43.508Z,18.77
2023-02-06T21:55:11.952Z,17.33
2023-02-06T21:57:40.328Z,15.50
2023-02-06T22:00:10.995Z,16.60
2023-02-06T22:02:40.840Z,14.00
2023-02-06T22:05:09.783Z,18.73
2023-02-06T22:07:39.289Z,15.20
2023-02-06T22:10:12.040Z,17.13
2023-02-06T22:12:40.496Z,16.97
2023-02-06T22:15:10.841Z,17.10
2023-02-06T22:17:40.718Z,16.73
2023-02-06T22:20:10.056Z,9.27
2023-02-06T22:22:38.801Z,13.47
2023-02-06T22:25:09.087Z,14.80
2023-02-06T22:27:38.969Z,13.07
2023-02-06T22:30:09.820Z,15.23
2023-02-06T22:32:40.980Z,18.83
2023-02-06T22:35:10.057Z,17.73
2023-02-06T22:37:38.472Z,14.27
2023-02-06T22:40:08.347Z,20.57
2023-02-06T22:42:36.899Z,14.83
2023-02-06T22:45:06.995Z,18.03
2023-02-06T22:47:35.414Z,16.33
2023-02-06T22:50:05.669Z,17.67
2023-02-06T22:52:52.186Z,17.13
2023-02-06T22:55:20.540Z,22.43
2023-02-06T22:57:48.970Z,16.27
2023-02-06T23:00:18.514Z,19.20
2023-02-06T23:02:47.641Z,30.80
2023-02-06T23:05:17.789Z,21.23
2023-02-06T23:07:46.229Z,17.07
2023-02-06T23:10:14.637Z,15.93
2023-02-06T23:12:43.066Z,17.47
2023-02-06T23:15:12.069Z,21.47
2023-02-06T23:17:40.504Z,19.27
2023-02-06T23:20:10.746Z,15.67
2023-02-06T23:22:40.495Z,18.57
2023-02-06T23:25:10.246Z,16.67
2023-02-06T23:27:38.614Z,23.97
2023-02-06T23:30:08.325Z,22.40
2023-02-06T23:32:36.726Z,19.77
2023-02-06T23:35:05.198Z,16.47
2023-02-06T23:37:33.629Z,19.93
2023-02-06T23:40:03.560Z,16.73
2023-02-06T23:42:32.339Z,20.87
2023-02-06T23:45:00.731Z,20.90
2023-02-06T23:47:29.150Z,17.13
2023-02-06T23:49:57.615Z,18.63
2023-02-06T23:52:25.969Z,21.07
2023-02-06T23:54:54.347Z,17.27
2023-02-06T23:57:24.226Z,23.93
2023-02-06T23:59:52.644Z,23.70
